Data for 05/28/2013

Time Sea-Level Adjusted Pressure Absolute Pressure Temperature Relative Humidity Dew Point   
(mb) (inHg) (mb) (inHg) (C) (F) (%) (C) (F)
00:05 1011 29.85 840 24.81 10.9 51.6 64 4.4 39.9
00:10 1011 29.85 840 24.81 10.9 51.5 62 3.9 39.1
00:15 1011 29.85 840 24.81 10.9 51.7 62 4.1 39.4
00:20 1011 29.85 840 24.81 10.9 51.5 64 4.4 39.9
00:25 1011 29.85 840 24.81 11 51.8 61 3.9 39
00:30 1011 29.85 840 24.81 11 51.9 61 3.9 39
00:35 1011 29.85 840 24.81 11.1 52 61 3.8 38.9
00:40 1011 29.85 840 24.81 11 51.9 63 4.2 39.6
00:45 1011 29.85 840 24.81 10.9 51.6 63 4.2 39.6
00:50 1011 29.85 840 24.81 10.8 51.4 65 4.6 40.2
00:55 1011 29.85 840 24.81 10.5 50.9 68 4.9 40.8
01:00 1011 29.85 840 24.81 10.3 50.5 69 4.9 40.8
01:05 1011 29.85 840 24.81 10.2 50.3 67 4.3 39.8
01:10 1011 29.85 840 24.81 10.2 50.3 69 4.8 40.6
01:15 1011 29.85 840 24.81 10.1 50.1 68 4.5 40
01:20 1011 29.85 840 24.81 10.1 50.2 69 4.7 40.5
01:25 1011 29.85 840 24.81 10.2 50.3 67 4.3 39.8
01:30 1011 29.85 840 24.81 10.2 50.4 67 4.3 39.7
01:35 1011 29.85 840 24.81 10.2 50.4 67 4.3 39.7
01:40 1011 29.85 840 24.81 10.2 50.3 69 4.7 40.5
01:45 1011 29.85 840 24.81 10.1 50.2 73 5.4 41.8
01:50 1011 29.85 840 24.81 10 50.1 72 5.1 41.3
01:55 1011 29.85 840 24.81 10 50 68 4.5 40.1
02:00 1011 29.85 840 24.81 10.1 50.1 67 4.2 39.6
02:05 1011 29.85 840 24.81 10.1 50.2 67 4.4 39.9
02:10 1011 29.85 840 24.81 10.1 50.2 67 4.3 39.8
02:15 1011 29.85 840 24.81 10.1 50.1 68 4.4 39.9
02:20 1011 29.85 840 24.81 10.1 50.2 67 4.3 39.7
02:25 1011 29.85 840 24.81 10.1 50.1 66 4 39.2
02:30 1011 29.85 840 24.81 10.1 50.1 67 4.2 39.6
02:35 1011 29.85 840 24.81 10.1 50.2 67 4.2 39.5
02:40 1011 29.85 840 24.81 10.1 50.1 67 4.3 39.7
02:45 1011 29.85 840 24.81 10 50 65 3.9 39
02:50 1011 29.85 840 24.81 10 50 67 4.3 39.7
02:55 1011 29.85 840 24.81 10 50.1 67 4.1 39.4
03:00 1011 29.85 840 24.81 10.1 50.2 68 4.5 40.2
03:05 1011 29.85 840 24.81 10 50.1 69 4.6 40.2
03:10 1011 29.85 840 24.81 9.8 49.6 70 4.6 40.2
03:15 1011 29.85 840 24.81 9.7 49.4 73 5.1 41.3
03:20 1011 29.85 840 24.81 9.5 49.2 74 5.1 41.1
03:25 1011 29.85 840 24.81 9.3 48.7 73 4.7 40.5
03:30 1011 29.85 840 24.81 9.1 48.4 73 4.5 40
03:35 1011 29.85 840 24.81 9 48.2 73 4.5 40.1
03:40 1011 29.85 840 24.81 9 48.2 73 4.5 40.2
03:45 1011 29.85 840 24.81 9.2 48.6 73 4.6 40.2
03:50 1011 29.85 840 24.81 9.1 48.4 74 4.7 40.4
03:55 1011 29.85 840 24.81 9 48.2 74 4.7 40.5
04:00 1011 29.85 840 24.81 9 48.1 75 4.8 40.6
04:05 1011 29.85 840 24.81 8.9 48 76 4.8 40.7
04:10 1011 29.85 840 24.81 8.8 47.9 76 4.9 40.7
04:15 1011 29.85 840 24.81 8.9 48 76 4.9 40.8
04:20 1011 29.85 840 24.81 9 48.1 77 5.1 41.1
04:25 1011 29.85 840 24.81 9 48.1 77 5.2 41.3
04:30 1011 29.85 840 24.81 9 48.2 76 5.1 41.2
04:35 1011 29.85 840 24.81 9.1 48.5 76 5.2 41.4
04:40 1011 29.85 840 24.81 9.2 48.5 75 5 41
04:45 1011 29.85 840 24.81 9.2 48.5 77 5.3 41.5
04:50 1011 29.85 840 24.81 9 48.1 76 5.1 41.1
04:55 1011 29.85 840 24.81 9 48.2 76 5 41
05:00 1011 29.85 840 24.81 8.9 48 75 4.8 40.6
05:05 1011 29.85 840 24.81 8.8 47.8 78 5.1 41.3
05:10 1011 29.85 840 24.81 8.6 47.4 78 5.1 41.1
05:15 1011 29.85 840 24.81 8.5 47.3 80 5.2 41.3
05:20 1011 29.85 840 24.81 8.3 47 80 5.1 41.2
05:25 1011 29.85 840 24.81 8.3 46.9 80 5 40.9
05:30 1011 29.85 840 24.81 8.3 46.9 80 5 41.1
05:35 1011 29.85 840 24.81 8.2 46.8 80 4.9 40.9
05:40 1011 29.85 840 24.81 8.2 46.8 79 4.9 40.8
05:45 1011 29.85 840 24.81 8.3 46.9 76 4.4 39.9
05:50 1011 29.85 840 24.81 8.3 47 75 4.2 39.6
05:55 1011 29.85 840 24.81 8.4 47.2 72 3.7 38.7
06:00 1011 29.85 840 24.81 8.6 47.4 73 4.1 39.4
06:05 1011 29.85 840 24.81 8.7 47.6 71 3.8 38.9
06:10 1011 29.85 840 24.81 8.8 47.8 72 4 39.2
06:15 1011 29.85 840 24.81 9 48.1 74 4.6 40.2
06:20 1011 29.85 840 24.81 9.1 48.3 74 4.6 40.4
06:25 1011 29.85 840 24.81 9.1 48.3 76 5.1 41.1
06:30 1011 29.85 840 24.81 9 48.2 75 4.9 40.8
06:35 1011 29.85 840 24.81 8.7 47.6 75 4.5 40.2
06:40 1011 29.85 840 24.81 8.7 47.6 73 4.1 39.5
06:45 1011 29.85 840 24.81 8.8 47.9 74 4.6 40.2
06:50 1011 29.85 840 24.81 9.1 48.3 76 5 41
06:55 1010 29.83 840 24.81 9.2 48.6 77 5.4 41.7
07:00 1010 29.83 840 24.81 9.3 48.7 78 5.6 42.1
07:05 1010 29.83 840 24.81 9.3 48.8 79 5.8 42.5
07:10 1010 29.83 840 24.81 9.3 48.8 78 5.6 42.2
07:15 1010 29.83 840 24.81 9.2 48.6 79 5.7 42.3
07:20 1011 29.85 840 24.81 9.6 49.3 77 5.9 42.5
07:25 1011 29.85 840 24.81 9.7 49.4 75 5.4 41.7
07:30 1011 29.85 840 24.81 9.9 49.9 75 5.8 42.4
07:35 1011 29.85 840 24.81 10 49.9 76 6 42.8
07:40 1011 29.85 840 24.81 10.1 50.2 73 5.6 42
07:45 1011 29.85 840 24.81 10.4 50.7 73 5.7 42.3
07:50 1011 29.85 840 24.81 10.4 50.8 73 5.8 42.4
07:55 1011 29.85 840 24.81 10.2 50.3 72 5.4 41.7
08:00 1011 29.85 840 24.81 10.5 50.8 74 6 42.8
08:05 1011 29.85 840 24.81 10.6 51.1 71 5.6 42.2
08:10 1011 29.85 840 24.81 10.6 51.1 71 5.5 41.9
08:15 1011 29.85 840 24.81 10.2 50.4 72 5.4 41.8
08:20 1011 29.85 840 24.81 10.2 50.3 72 5.4 41.7
08:25 1011 29.85 840 24.81 10.5 50.9 70 5.2 41.4
08:30 1011 29.85 840 24.81 10.5 50.9 69 5.2 41.3
08:35 1011 29.85 840 24.81 10.7 51.2 67 4.9 40.9
08:40 1011 29.85 840 24.81 10.4 50.8 68 4.7 40.5
08:45 1011 29.85 840 24.81 10.6 51.1 70 5.5 41.9
08:50 1011 29.85 840 24.81 10.5 50.9 72 5.6 42.1
08:55 1011 29.85 840 24.81 10.6 51.1 68 5 41.1
09:00 1011 29.85 840 24.81 10.3 50.5 69 4.9 40.9
09:05 1011 29.85 840 24.81 10.3 50.6 69 4.9 40.9
09:10 1011 29.85 840 24.81 10.8 51.4 67 4.9 40.8
09:15 1011 29.85 840 24.81 10.7 51.3 67 4.9 40.9
09:20 1011 29.85 840 24.81 11.2 52.1 64 4.6 40.3
09:25 1011 29.85 840 24.81 11 51.8 67 5.1 41.2
09:30 1011 29.85 840 24.81 11 51.8 64 4.6 40.2
09:35 1011 29.85 840 24.81 11.5 52.7 63 4.7 40.4
09:40 1011 29.85 840 24.81 11.9 53.5 61 4.8 40.6
09:45 1011 29.85 840 24.81 12.2 53.9 61 4.9 40.8
09:50 1011 29.85 840 24.81 12.3 54.1 59 4.4 40
09:55 1011 29.85 840 24.81 12.1 53.9 59 4.5 40.1
10:00 1011 29.85 840 24.81 12.3 54.1 58 4.2 39.6
10:05 1010 29.83 840 24.81 12.1 53.8 58 4.1 39.3
10:10 1010 29.83 840 24.81 12.8 55 57 4.5 40.1
10:15 1010 29.83 840 24.81 13.4 56.1 54 4.3 39.7
10:20 1010 29.83 839 24.78 13.2 55.7 55 4.4 39.9
10:25 1010 29.83 839 24.78 13.5 56.4 52 3.9 39
10:30 1010 29.83 839 24.78 13.9 56.9 52 4.2 39.5
10:35 1010 29.83 839 24.78 13.9 57 52 4.3 39.8
10:40 1010 29.83 839 24.78 13.8 56.9 48 3.2 37.7
10:45 1010 29.83 839 24.78 14.5 58.2 47 3.6 38.4
10:50 1010 29.83 839 24.78 15 59 49 4.5 40
10:55 1010 29.83 840 24.81 14.7 58.4 49 4.2 39.5
11:00 1010 29.83 840 24.81 14.4 57.8 50 4 39.2
11:05 1010 29.83 840 24.81 14.1 57.4 52 4.4 40
11:10 1010 29.83 840 24.81 14.5 58.2 49 3.9 39
11:15 1010 29.83 840 24.81 14.9 58.7 49 4.4 39.8
11:20 1010 29.83 840 24.81 14.2 57.6 45 2.6 36.7
11:25 1010 29.83 840 24.81 15 58.9 47 3.7 38.7
11:30 1010 29.83 840 24.81 15.4 59.8 47 4.3 39.7
11:35 1010 29.83 840 24.81 14.8 58.7 45 3.2 37.8
11:40 1010 29.83 839 24.78 15.1 59.2 48 4.2 39.6
11:45 1010 29.83 839 24.78 14.7 58.4 49 4.1 39.4
11:50 1010 29.83 840 24.81 14.4 57.9 49 4 39.1
11:55 1010 29.83 839 24.78 14.5 58.1 48 3.8 38.9
12:00 1010 29.83 839 24.78 14.4 57.9 51 4.4 39.8
12:05 1010 29.83 839 24.78 14.8 58.6 49 4.3 39.8
12:10 1010 29.83 839 24.78 15.2 59.4 47 4.2 39.5
12:15 1010 29.83 839 24.78 15.8 60.5 46 4.4 40
12:20 1010 29.83 839 24.78 15.4 59.6 49 4.8 40.6
12:25 1010 29.83 839 24.78 15.2 59.3 48 4.4 40
12:30 1010 29.83 839 24.78 15 59.1 46 3.7 38.7
12:35 1010 29.83 839 24.78 14.4 57.8 51 4.4 39.9
12:40 1010 29.83 839 24.78 14.5 58 50 4.4 39.9
12:45 1010 29.83 839 24.78 14.5 58.1 51 4.6 40.2
12:50 1010 29.83 839 24.78 14.6 58.2 53 5.3 41.6
12:55 1010 29.83 840 24.81 13.5 56.3 63 6.5 43.8
13:00 1010 29.83 840 24.81 13.1 55.5 59 5.3 41.6
13:05 1010 29.83 840 24.81 12.9 55.2 58 4.8 40.6
13:10 1010 29.83 840 24.81 12.8 55.1 57 4.6 40.3
13:15 1010 29.83 839 24.78 13.4 56.1 53 4.1 39.4
13:20 1010 29.83 839 24.78 14.6 58.2 49 4 39.2
13:25 1010 29.83 839 24.78 15.2 59.4 47 4.2 39.5
13:30 1010 29.83 839 24.78 15 58.9 46 3.5 38.4
13:35 1010 29.83 839 24.78 15.2 59.4 47 4.1 39.4
13:40 1010 29.83 839 24.78 15.1 59.1 48 4.1 39.5
13:45 1010 29.83 839 24.78 15.3 59.5 48 4.4 39.9
13:50 1010 29.83 839 24.78 15.2 59.3 50 4.9 40.9
13:55 1010 29.83 839 24.78 15 59.1 51 5.1 41.2
14:00 1010 29.83 839 24.78 15 59 49 4.4 39.9
14:05 1010 29.83 839 24.78 15.2 59.3 51 5.1 41.3
14:10 1010 29.83 839 24.78 14.3 57.7 50 4 39.2
14:15 1010 29.83 839 24.78 14.7 58.5 47 3.6 38.5
14:20 1010 29.83 839 24.78 15.1 59.1 45 3.2 37.7
14:25 1010 29.83 839 24.78 15.3 59.6 45 3.5 38.3
14:30 1010 29.83 839 24.78 15.4 59.7 46 3.9 39.1
14:35 1010 29.83 839 24.78 15 58.9 50 4.6 40.3
14:40 1010 29.83 839 24.78 14.3 57.7 52 4.6 40.3
14:45 1010 29.83 839 24.78 14.1 57.3 51 4.3 39.7
14:50 1010 29.83 839 24.78 14.1 57.4 51 4.3 39.8
14:55 1010 29.83 839 24.78 14.2 57.5 52 4.5 40.1
15:00 1010 29.83 839 24.78 14.1 57.4 51 4.2 39.5
15:05 1010 29.83 839 24.78 14.1 57.4 52 4.6 40.3
15:10 1010 29.83 839 24.78 14.2 57.5 52 4.4 40
15:15 1010 29.83 839 24.78 13.2 55.8 69 7.6 45.7
15:20 1010 29.83 839 24.78 11.9 53.3 66 5.8 42.4
15:25 1010 29.83 839 24.78 11.9 53.3 69 6.3 43.3
15:30 1010 29.83 839 24.78 11.4 52.6 70 6.3 43.3
15:35 1010 29.83 840 24.81 11.3 52.4 71 6.2 43.2
15:40 1010 29.83 840 24.81 11 51.7 73 6.4 43.5
15:45 1010 29.83 840 24.81 10.5 50.8 77 6.7 44.1
15:50 1010 29.83 840 24.81 10.3 50.5 75 6.2 43.1
15:55 1010 29.83 840 24.81 10.3 50.5 76 6.3 43.3
16:00 1010 29.83 840 24.81 10.2 50.3 79 6.7 44
16:05 1010 29.83 840 24.81 10.2 50.4 79 6.7 44
16:10 1010 29.83 840 24.81 10.3 50.6 75 6.1 42.9
16:15 1010 29.83 840 24.81 10.9 51.6 66 4.8 40.6
16:20 1010 29.83 840 24.81 11 51.7 79 7.5 45.5
16:25 1010 29.83 840 24.81 10.6 51.2 78 6.9 44.4
16:30 1010 29.83 840 24.81 10.8 51.5 72 6.1 42.9
16:35 1010 29.83 840 24.81 10.9 51.6 75 6.6 43.8
16:40 1010 29.83 840 24.81 11.2 52.2 72 6.3 43.4
16:45 1010 29.83 840 24.81 11.3 52.3 78 7.7 45.8
16:50 1011 29.85 840 24.81 11.1 52 73 6.4 43.6
16:55 1011 29.85 840 24.81 11.3 52.4 70 6.1 42.9
17:00 1011 29.85 840 24.81 11.4 52.5 69 6 42.8
17:05 1011 29.85 840 24.81 11.6 52.9 70 6.4 43.5
17:10 1011 29.85 840 24.81 11.8 53.2 66 5.7 42.2
17:15 1011 29.85 840 24.81 12 53.5 67 6.1 43
17:20 1011 29.85 840 24.81 12.1 53.7 68 6.5 43.7
17:25 1011 29.85 840 24.81 12.2 54 65 5.8 42.5
17:30 1011 29.85 840 24.81 12.3 54.1 65 6 42.8
17:35 1011 29.85 840 24.81 12 53.6 66 5.8 42.5
17:40 1011 29.85 840 24.81 11.9 53.5 66 5.8 42.5
17:45 1010 29.83 840 24.81 12 53.6 67 6.2 43.1
17:50 1010 29.83 840 24.81 12.1 53.8 64 5.5 42
17:55 1010 29.83 840 24.81 12.2 53.9 64 5.7 42.2
18:00 1010 29.83 840 24.81 12.1 53.8 64 5.6 42.1
18:05 1010 29.83 840 24.81 12 53.6 64 5.4 41.8
18:10 1010 29.83 840 24.81 12 53.6 67 6 42.8
18:15 1010 29.83 840 24.81 12 53.5 64 5.4 41.7
18:20 1011 29.85 840 24.81 11.9 53.5 65 5.6 42
18:25 1011 29.85 840 24.81 12 53.5 65 5.6 42
18:30 1011 29.85 840 24.81 12 53.5 65 5.6 42.1
18:35 1011 29.85 840 24.81 12 53.5 64 5.5 42
18:40 1011 29.85 840 24.81 12 53.5 66 5.8 42.4
18:45 1011 29.85 840 24.81 12 53.6 66 6 42.8
18:50 1011 29.85 840 24.81 11.6 52.9 70 6.3 43.4
18:55 1011 29.85 840 24.81 11.1 52 72 6.3 43.3
19:00 1011 29.85 840 24.81 10.9 51.6 72 6.2 43.1
19:05 1011 29.85 840 24.81 10.7 51.2 74 6.2 43.2
19:10 1011 29.85 840 24.81 10.5 50.8 74 6.1 42.9
19:15 1011 29.85 840 24.81 10.3 50.5 73 5.7 42.3
19:20 1011 29.85 840 24.81 10.1 50.2 74 5.6 42.1
19:25 1011 29.85 840 24.81 10 50 73 5.4 41.7
19:30 1011 29.85 840 24.81 10 50 72 5.2 41.4
19:35 1011 29.85 840 24.81 10 50 71 5 41.1
19:40 1011 29.85 840 24.81 10.1 50.2 69 4.8 40.6
19:45 1011 29.85 840 24.81 10.3 50.5 69 5 40.9
19:50 1011 29.85 840 24.81 10.3 50.6 68 4.6 40.3
19:55 1011 29.85 840 24.81 10.4 50.7 68 4.7 40.4
20:00 1011 29.85 840 24.81 10.4 50.7 68 4.8 40.7
20:05 1011 29.85 840 24.81 10.3 50.5 70 5.1 41.1
20:10 1011 29.85 840 24.81 10.2 50.3 68 4.7 40.4
20:15 1011 29.85 840 24.81 10.1 50.2 69 4.7 40.5
20:20 1011 29.85 840 24.81 10.1 50.2 68 4.5 40
20:25 1011 29.85 840 24.81 10.3 50.5 66 4.3 39.7
20:30 1011 29.85 840 24.81 10.3 50.5 68 4.7 40.5
20:35 1011 29.85 840 24.81 10.2 50.4 67 4.4 39.9
20:40 1011 29.85 840 24.81 10.3 50.6 69 4.9 40.9
20:45 1011 29.85 840 24.81 10.2 50.3 72 5.5 41.8
20:50 1011 29.85 840 24.81 10.2 50.4 70 5 41
20:55 1011 29.85 840 24.81 10.3 50.6 76 6.2 43.2
21:00 1011 29.85 841 24.83 10 50.1 79 6.6 43.9
21:05 1011 29.85 841 24.83 9.5 49.2 82 6.6 44
21:10 1011 29.85 841 24.83 9.2 48.6 82 6.3 43.3
21:15 1012 29.88 841 24.83 9 48.2 82 6.1 43.1
21:20 1012 29.88 841 24.83 8.9 48 83 6.3 43.3
21:25 1012 29.88 841 24.83 8.8 47.8 84 6.2 43.2
21:30 1012 29.88 841 24.83 8.6 47.6 85 6.2 43.2
21:35 1012 29.88 841 24.83 8.4 47.1 87 6.3 43.4
21:40 1012 29.88 841 24.83 8.2 46.8 88 6.3 43.3
21:45 1012 29.88 841 24.83 8.2 46.7 87 6.2 43.1
21:50 1012 29.88 841 24.83 8.1 46.6 87 6 42.8
21:55 1012 29.88 841 24.83 8.1 46.5 86 5.9 42.6
22:00 1012 29.88 841 24.83 8 46.3 88 6 42.9
22:05 1012 29.88 841 24.83 7.8 46.1 88 6 42.9
22:10 1011 29.85 841 24.83 7.7 45.9 89 6 42.8
22:15 1012 29.88 841 24.83 7.7 45.9 89 6.1 42.9
22:20 1012 29.88 841 24.83 7.7 45.8 90 6.1 43
22:25 1012 29.88 841 24.83 7.7 45.8 90 6.1 43
22:30 1012 29.88 841 24.83 7.6 45.7 90 6 42.8
22:35 1012 29.88 841 24.83 7.7 45.8 89 6 42.8
22:40 1012 29.88 841 24.83 7.7 45.8 88 5.8 42.5
22:45 1012 29.88 841 24.83 7.7 45.8 88 5.9 42.6
22:50 1012 29.88 841 24.83 7.7 45.9 87 5.7 42.2
22:55 1012 29.88 841 24.83 7.8 46 89 6 42.8
23:00 1012 29.88 841 24.83 7.7 45.9 88 5.8 42.5
23:05 1012 29.88 841 24.83 7.7 45.9 89 6 42.9
23:10 1012 29.88 841 24.83 7.6 45.7 90 6.1 42.9
23:15 1012 29.88 841 24.83 7.6 45.6 89 5.9 42.6
23:20 1012 29.88 841 24.83 7.6 45.6 89 5.9 42.6
23:25 1012 29.88 841 24.83 7.5 45.5 89 5.9 42.6
23:30 1012 29.88 841 24.83 7.6 45.6 88 5.8 42.4
23:35 1012 29.88 841 24.83 7.7 45.8 85 5.4 41.6
23:40 1012 29.88 841 24.83 7.8 46 85 5.5 41.9
23:45 1012 29.88 841 24.83 7.8 46 85 5.4 41.8
23:50 1012 29.88 841 24.83 7.8 46.1 85 5.5 41.9
23:55 1012 29.88 841 24.83 7.8 46.1 85 5.5 41.9
24:00 1012 29.88 841 24.83 7.8 46.1 86 5.6 42.1